createdAt,value
2023-04-15T00:01:45.286Z,101120.23
2023-04-15T00:04:41.438Z,101129.31
2023-04-15T00:07:36.886Z,101132.73
2023-04-15T00:10:33.037Z,101135.87
2023-04-15T00:13:35.284Z,101140.85
2023-04-15T00:16:31.649Z,101148.26
2023-04-15T00:19:42.887Z,101151.79
2023-04-15T00:22:33.586Z,101158.82
2023-04-15T00:25:37.620Z,101160.83
2023-04-15T00:28:33.823Z,101161.46
2023-04-15T00:31:35.572Z,101165.79
2023-04-15T00:34:38.071Z,101172.77
2023-04-15T00:37:49.250Z,101182.16
2023-04-15T00:40:49.105Z,101178.10
2023-04-15T00:43:48.974Z,101175.91
2023-04-15T00:46:45.618Z,101180.27
2023-04-15T00:49:41.653Z,101181.52
2023-04-15T00:52:37.307Z,101177.76
2023-04-15T00:55:31.374Z,101179.67
2023-04-15T00:58:28.163Z,101173.83
2023-04-15T01:01:28.943Z,101170.67
2023-04-15T01:04:19.574Z,101165.89
2023-04-15T01:07:19.716Z,101173.30
2023-04-15T01:10:11.331Z,101177.73
2023-04-15T01:13:11.205Z,101182.65
2023-04-15T01:16:08.865Z,101186.64
2023-04-15T01:19:19.806Z,101194.66
2023-04-15T01:22:13.252Z,101194.79
2023-04-15T01:25:10.767Z,101201.91
2023-04-15T01:28:22.037Z,101206.37
2023-04-15T01:31:32.220Z,101206.51
2023-04-15T01:34:23.593Z,101208.83
2023-04-15T01:37:17.642Z,101213.90
2023-04-15T01:40:17.371Z,101217.41
2023-04-15T01:43:13.735Z,101221.31
2023-04-15T01:46:10.069Z,101218.78
2023-04-15T01:49:01.164Z,101226.76
2023-04-15T01:52:12.439Z,101239.65
2023-04-15T01:55:09.982Z,101240.39
2023-04-15T01:58:20.912Z,101244.63
2023-04-15T02:01:17.247Z,101248.48
2023-04-15T02:04:09.905Z,101254.71
2023-04-15T02:07:06.060Z,101266.07
2023-04-15T02:09:56.850Z,101268.15
2023-04-15T02:12:50.742Z,101267.91
2023-04-15T02:15:41.904Z,101268.59
2023-04-15T02:18:52.994Z,101267.40
2023-04-15T02:21:55.471Z,101265.54
2023-04-15T02:24:47.588Z,101268.09
2023-04-15T02:27:43.358Z,101269.55
2023-04-15T02:30:36.206Z,101267.27
2023-04-15T02:33:32.627Z,101269.55
2023-04-15T02:36:32.133Z,101269.82
2023-04-15T02:39:29.069Z,101271.16
2023-04-15T02:42:22.884Z,101272.04
2023-04-15T02:45:20.497Z,101278.09
2023-04-15T02:48:19.136Z,101284.04
2023-04-15T02:51:19.981Z,101283.72
2023-04-15T02:54:26.064Z,101284.78
2023-04-15T02:57:17.645Z,101288.52
2023-04-15T03:00:18.043Z,101292.38
2023-04-15T03:03:11.731Z,101293.48
2023-04-15T03:06:07.121Z,101299.85
2023-04-15T03:09:00.599Z,101307.64
2023-04-15T03:11:57.153Z,101308.17
2023-04-15T03:14:48.421Z,101312.94
2023-04-15T03:17:49.863Z,101315.62
2023-04-15T03:20:41.418Z,101313.49
2023-04-15T03:23:42.192Z,101321.93
2023-04-15T03:26:40.293Z,101328.64
2023-04-15T03:29:51.895Z,101338.64
2023-04-15T03:32:54.933Z,101345.88
2023-04-15T03:35:48.005Z,101354.34
2023-04-15T03:38:41.466Z,101355.07
2023-04-15T03:41:38.046Z,101357.61
2023-04-15T03:44:40.231Z,101362.38
2023-04-15T03:47:51.158Z,101362.77
2023-04-15T03:50:47.408Z,101365.71
2023-04-15T03:53:43.474Z,101367.58
2023-04-15T03:56:41.704Z,101373.75
2023-04-15T03:59:32.349Z,101377.05
2023-04-15T04:02:43.627Z,101378.80
2023-04-15T04:05:45.707Z,101378.23
2023-04-15T04:08:47.493Z,101377.00
2023-04-15T04:11:58.009Z,101377.23
2023-04-15T04:15:09.731Z,101387.16
2023-04-15T04:18:09.596Z,101387.48
2023-04-15T04:21:05.660Z,101386.67
2023-04-15T04:24:05.473Z,101391.93
2023-04-15T04:27:16.288Z,101395.80
2023-04-15T04:30:10.210Z,101404.10
2023-04-15T04:33:11.868Z,101406.82
2023-04-15T04:36:08.838Z,101403.46
2023-04-15T04:39:05.422Z,101410.15
2023-04-15T04:42:03.788Z,101414.90
2023-04-15T04:44:59.671Z,101418.69
2023-04-15T04:47:56.047Z,101420.49
2023-04-15T04:50:56.803Z,101417.98
2023-04-15T04:53:58.209Z,101422.35
2023-04-15T04:56:53.927Z,101428.13
2023-04-15T04:59:50.204Z,101433.49
2023-04-15T05:02:44.337Z,101432.50
2023-04-15T05:05:46.730Z,101430.07
2023-04-15T05:08:47.267Z,101434.02
2023-04-15T05:11:43.067Z,101442.21
2023-04-15T05:14:46.925Z,101447.23
2023-04-15T05:17:45.184Z,101448.61
2023-04-15T05:20:40.744Z,101454.95
2023-04-15T05:23:35.020Z,101456.70
2023-04-15T05:26:31.766Z,101467.86
2023-04-15T05:29:33.354Z,101475.97
2023-04-15T05:32:28.806Z,101480.38
2023-04-15T05:35:25.140Z,101482.75
2023-04-15T05:38:20.683Z,101482.78
2023-04-15T05:41:22.627Z,101488.08
2023-04-15T05:44:20.540Z,101495.19
2023-04-15T05:47:21.951Z,101501.44
2023-04-15T05:50:25.630Z,101503.56
2023-04-15T05:53:22.364Z,101509.11
2023-04-15T05:56:17.735Z,101506.79
2023-04-15T05:59:13.343Z,101514.04
2023-04-15T06:02:15.367Z,101518.56
2023-04-15T06:05:19.293Z,101525.98
2023-04-15T06:08:30.482Z,101531.84
2023-04-15T06:11:24.336Z,101536.30
2023-04-15T06:14:17.792Z,101543.38
2023-04-15T06:17:08.925Z,101550.73
2023-04-15T06:20:02.900Z,101552.41
2023-04-15T06:23:10.259Z,101552.80
2023-04-15T06:26:07.454Z,101554.40
2023-04-15T06:29:18.194Z,101559.68
2023-04-15T06:32:29.420Z,101564.79
2023-04-15T06:35:40.780Z,101570.32
2023-04-15T06:42:06.164Z,101576.45
2023-04-15T06:44:56.942Z,101583.86
2023-04-15T06:47:53.024Z,101588.73
2023-04-15T06:50:44.100Z,101595.42
2023-04-15T06:53:45.223Z,101597.80
2023-04-15T06:56:36.524Z,101604.00
2023-04-15T06:59:31.012Z,101599.94
2023-04-15T07:02:22.118Z,101602.66
2023-04-15T07:05:19.173Z,101608.93
2023-04-15T07:08:10.142Z,101607.17
2023-04-15T07:11:11.908Z,101613.05
2023-04-15T07:14:07.587Z,101618.83
2023-04-15T07:17:02.494Z,101622.30
2023-04-15T07:19:59.004Z,101621.22
2023-04-15T07:22:54.034Z,101621.55
2023-04-15T07:25:53.932Z,101623.80
2023-04-15T07:28:47.690Z,101630.48
2023-04-15T07:31:38.263Z,101626.04
2023-04-15T07:34:30.680Z,101622.45
2023-04-15T07:37:22.091Z,101626.60
2023-04-15T07:40:16.814Z,101621.41
2023-04-15T07:43:07.745Z,101626.93
2023-04-15T07:45:58.916Z,101632.27
2023-04-15T07:48:54.997Z,101639.50
2023-04-15T07:51:46.128Z,101642.64
2023-04-15T07:54:36.910Z,101640.02
2023-04-15T07:57:27.564Z,101640.77
2023-04-15T08:00:18.456Z,101641.63
2023-04-15T08:03:09.131Z,101641.20
2023-04-15T08:06:00.132Z,101642.02
2023-04-15T08:08:51.095Z,101642.26
2023-04-15T08:11:42.416Z,101645.91
2023-04-15T08:14:33.012Z,101638.95
2023-04-15T08:17:23.953Z,101636.50
2023-04-15T08:20:17.633Z,101628.21
2023-04-15T08:23:08.911Z,101625.07
2023-04-15T08:25:59.633Z,101625.14
2023-04-15T08:28:50.529Z,101627.27
2023-04-15T08:31:41.487Z,101627.46
2023-04-15T08:34:32.398Z,101628.67
2023-04-15T08:37:23.375Z,101628.05
2023-04-15T08:40:17.888Z,101624.09
2023-04-15T08:43:10.773Z,101626.12
2023-04-15T08:46:02.107Z,101632.79
2023-04-15T08:48:53.557Z,101640.20
2023-04-15T08:51:44.228Z,101642.71
2023-04-15T08:54:35.173Z,101643.92
2023-04-15T08:57:27.785Z,101644.83
2023-04-15T09:00:18.671Z,101649.44
2023-04-15T09:03:09.970Z,101650.51
2023-04-15T09:06:01.228Z,101651.69
2023-04-15T09:08:53.127Z,101650.71
2023-04-15T09:11:43.843Z,101648.83
2023-04-15T09:14:35.197Z,101650.58
2023-04-15T09:17:26.828Z,101654.06
2023-04-15T09:20:18.946Z,101657.72
2023-04-15T09:23:15.332Z,101660.09
2023-04-15T09:26:06.555Z,101666.16
2023-04-15T09:29:03.770Z,101667.32
2023-04-15T09:31:54.843Z,101669.63
2023-04-15T09:34:46.151Z,101670.70
2023-04-15T09:37:39.632Z,101667.77
2023-04-15T09:40:37.727Z,101668.12
2023-04-15T09:43:40.245Z,101670.66
2023-04-15T09:46:46.595Z,101667.52
2023-04-15T09:49:39.548Z,101665.20
2023-04-15T09:52:31.234Z,101666.40
2023-04-15T09:55:23.845Z,101665.55
2023-04-15T09:58:20.793Z,101666.96
2023-04-15T10:01:12.055Z,101665.80
2023-04-15T10:04:04.769Z,101666.46
2023-04-15T10:06:55.826Z,101662.91
2023-04-15T10:09:47.463Z,101660.70
2023-04-15T10:12:38.739Z,101661.40
2023-04-15T10:15:30.346Z,101665.39
2023-04-15T10:18:23.977Z,101665.71
2023-04-15T10:21:19.019Z,101663.06
2023-04-15T10:24:09.999Z,101664.02
2023-04-15T10:27:11.508Z,101659.55
2023-04-15T10:30:05.163Z,101658.95
2023-04-15T10:32:56.618Z,101663.65
2023-04-15T10:35:51.954Z,101660.63
2023-04-15T10:45:51.674Z,101663.84
2023-04-15T10:48:48.334Z,101666.41
2023-04-15T10:59:38.738Z,101660.62
2023-04-15T11:02:48.781Z,101668.02
2023-04-15T11:06:02.589Z,101671.50
2023-04-15T11:09:34.259Z,101674.98
2023-04-15T11:12:37.394Z,101677.95
2023-04-15T11:15:52.399Z,101671.30
2023-04-15T11:18:59.791Z,101669.98
2023-04-15T11:22:33.132Z,101666.73
2023-04-15T11:25:28.563Z,101665.16
2023-04-15T11:28:24.068Z,101664.92
2023-04-15T11:31:24.654Z,101664.61
2023-04-15T11:34:26.398Z,101663.50
2023-04-15T11:37:50.192Z,101668.98
2023-04-15T11:40:49.160Z,101671.09
2023-04-15T11:44:20.876Z,101672.11
2023-04-15T11:47:25.274Z,101674.69
2023-04-15T11:50:26.425Z,101680.78
2023-04-15T11:53:30.050Z,101683.38
2023-04-15T11:56:24.576Z,101683.48
2023-04-15T11:59:18.035Z,101681.23
2023-04-15T12:02:14.790Z,101680.07
2023-04-15T12:05:09.092Z,101684.98
2023-04-15T12:08:47.104Z,101684.31
2023-04-15T12:12:31.682Z,101677.24
2023-04-15T12:16:35.242Z,101669.60
2023-04-15T12:20:30.040Z,101672.09
2023-04-15T12:23:42.234Z,101676.98
2023-04-15T12:27:00.184Z,101680.46
2023-04-15T12:29:48.801Z,101679.64
2023-04-15T12:32:43.585Z,101684.86
2023-04-15T12:35:55.663Z,101688.52
2023-04-15T12:39:46.899Z,101690.64
2023-04-15T12:43:05.465Z,101689.25
2023-04-15T12:46:36.194Z,101686.12
2023-04-15T12:49:23.566Z,101684.75
2023-04-15T12:52:14.357Z,101690.55
2023-04-15T12:55:05.096Z,101692.29
2023-04-15T12:57:55.857Z,101697.93
2023-04-15T13:00:47.160Z,101693.83
2023-04-15T13:03:39.372Z,101684.83
2023-04-15T13:06:30.805Z,101688.75
2023-04-15T13:09:23.699Z,101693.54
2023-04-15T13:12:15.586Z,101692.53
2023-04-15T13:15:27.847Z,101693.02
2023-04-15T13:18:31.284Z,101692.00
2023-04-15T13:21:22.353Z,101692.36
2023-04-15T13:24:39.714Z,101691.93
2023-04-15T13:27:32.514Z,101689.25
2023-04-15T13:30:23.000Z,101691.17
2023-04-15T13:33:14.049Z,101693.42
2023-04-15T13:36:04.998Z,101692.98
2023-04-15T13:38:55.960Z,101695.31
2023-04-15T13:41:48.716Z,101693.49
2023-04-15T13:44:41.963Z,101692.06
2023-04-15T13:47:33.198Z,101690.38
2023-04-15T13:50:24.324Z,101693.50
2023-04-15T13:53:15.150Z,101688.36
2023-04-15T13:56:06.509Z,101686.30
2023-04-15T13:58:59.150Z,101685.64
2023-04-15T14:01:49.675Z,101684.66
2023-04-15T14:04:40.333Z,101683.00
2023-04-15T14:07:33.582Z,101681.19
2023-04-15T14:10:29.059Z,101683.23
2023-04-15T14:13:39.919Z,101680.59
2023-04-15T14:16:33.087Z,101676.71
2023-04-15T14:19:33.102Z,101678.02
2023-04-15T14:22:23.921Z,101672.80
2023-04-15T14:25:20.181Z,101672.63
2023-04-15T14:28:21.172Z,101667.26
2023-04-15T14:31:12.558Z,101671.81
2023-04-15T14:34:03.637Z,101681.23
2023-04-15T14:36:54.396Z,101680.20
2023-04-15T14:39:45.527Z,101684.77
2023-04-15T14:42:38.153Z,101688.27
2023-04-15T14:45:28.941Z,101684.24
2023-04-15T14:48:19.951Z,101685.32
2023-04-15T14:51:10.856Z,101688.75
2023-04-15T14:54:04.458Z,101692.50
2023-04-15T14:56:56.081Z,101694.09
2023-04-15T14:59:46.689Z,101699.85
2023-04-15T15:02:40.621Z,101703.52
2023-04-15T15:05:31.541Z,101703.59
2023-04-15T15:08:22.486Z,101704.98
2023-04-15T15:11:13.197Z,101712.27
2023-04-15T15:14:03.959Z,101718.70
2023-04-15T15:16:54.748Z,101724.77
2023-04-15T15:20:06.283Z,101724.95
2023-04-15T15:22:57.159Z,101723.09
2023-04-15T15:25:49.074Z,101725.06
2023-04-15T15:28:39.816Z,101721.43
2023-04-15T15:31:59.002Z,101725.52
2023-04-15T15:34:49.481Z,101734.39
2023-04-15T15:37:40.362Z,101735.05
2023-04-15T15:40:31.150Z,101732.40
2023-04-15T15:43:24.243Z,101735.06
2023-04-15T15:46:14.965Z,101735.59
2023-04-15T15:49:06.010Z,101735.50
2023-04-15T15:51:59.288Z,101735.23
2023-04-15T15:54:50.128Z,101733.32
2023-04-15T15:57:40.969Z,101729.16
2023-04-15T16:00:34.673Z,101722.80
2023-04-15T16:03:25.653Z,101724.90
2023-04-15T16:06:16.765Z,101726.88
2023-04-15T16:09:07.528Z,101730.50
2023-04-15T16:11:58.936Z,101733.52
2023-04-15T16:14:49.581Z,101731.64
2023-04-15T16:17:40.662Z,101728.92
2023-04-15T16:20:31.304Z,101727.04
2023-04-15T16:23:21.937Z,101730.46
2023-04-15T16:26:12.835Z,101739.65
2023-04-15T16:29:04.708Z,101737.80
2023-04-15T16:31:56.462Z,101734.81
2023-04-15T16:34:48.117Z,101738.14
2023-04-15T16:37:41.643Z,101734.74
2023-04-15T16:40:33.236Z,101731.83
2023-04-15T16:43:23.942Z,101728.13
2023-04-15T16:46:17.857Z,101727.48
2023-04-15T16:49:08.542Z,101730.93
2023-04-15T16:52:02.808Z,101734.91
2023-04-15T16:54:53.840Z,101732.89
2023-04-15T16:58:02.335Z,101736.14
2023-04-15T17:00:54.710Z,101733.30
2023-04-15T17:03:48.510Z,101725.02
2023-04-15T17:06:39.183Z,101725.12
2023-04-15T17:09:30.040Z,101723.27
2023-04-15T17:12:20.687Z,101727.63
2023-04-15T17:15:11.794Z,101734.89
2023-04-15T17:18:02.416Z,101735.48
2023-04-15T17:20:56.342Z,101730.87
2023-04-15T17:23:46.956Z,101728.48
2023-04-15T17:26:41.399Z,101732.48
2023-04-15T17:29:36.886Z,101725.30
2023-04-15T17:32:34.585Z,101721.52
2023-04-15T17:35:28.624Z,101715.80
2023-04-15T17:38:22.025Z,101715.45
2023-04-15T17:41:16.590Z,101725.63
2023-04-15T17:44:07.358Z,101730.88
2023-04-15T17:46:58.034Z,101725.63
2023-04-15T17:49:52.211Z,101723.55
2023-04-15T17:52:42.959Z,101727.42
2023-04-15T17:55:34.464Z,101715.59
2023-04-15T17:58:30.267Z,101722.38
2023-04-15T18:01:22.645Z,101731.35
2023-04-15T18:04:13.620Z,101734.67
2023-04-15T18:07:09.688Z,101738.33
2023-04-15T18:10:03.483Z,101731.80
2023-04-15T18:12:57.336Z,101732.95
2023-04-15T18:15:51.507Z,101734.63
2023-04-15T18:18:42.170Z,101734.86
2023-04-15T18:21:36.141Z,101737.46
2023-04-15T18:24:31.555Z,101740.84
2023-04-15T18:27:24.635Z,101734.71
2023-04-15T18:30:15.674Z,101737.48
2023-04-15T18:33:08.906Z,101736.97
2023-04-15T18:35:59.632Z,101731.36
2023-04-15T18:38:52.771Z,101723.59
2023-04-15T18:41:43.708Z,101725.61
2023-04-15T18:44:34.351Z,101726.36
2023-04-15T18:47:27.155Z,101728.55
2023-04-15T18:50:18.182Z,101733.38
2023-04-15T18:53:08.780Z,101740.20
2023-04-15T18:56:01.862Z,101740.41
2023-04-15T18:59:08.611Z,101740.01
2023-04-15T19:02:06.528Z,101744.04
2023-04-15T19:04:57.596Z,101742.13
2023-04-15T19:07:48.408Z,101735.44
2023-04-15T19:10:39.329Z,101729.84
2023-04-15T19:13:32.465Z,101728.35
2023-04-15T19:16:23.573Z,101726.38
2023-04-15T19:19:15.314Z,101736.87
2023-04-15T19:22:06.857Z,101739.17
2023-04-15T19:24:57.704Z,101738.15
2023-04-15T19:27:50.558Z,101733.45
2023-04-15T19:30:43.600Z,101728.63
2023-04-15T19:33:35.209Z,101730.98
2023-04-15T19:36:28.307Z,101741.80
2023-04-15T19:39:31.827Z,101751.52
2023-04-15T19:46:40.745Z,101755.47
2023-04-15T19:49:34.243Z,101758.98
2023-04-15T19:52:25.796Z,101762.89
2023-04-15T19:55:16.684Z,101764.63
2023-04-15T19:58:07.364Z,101770.45
2023-04-15T20:00:58.034Z,101779.34
2023-04-15T20:03:48.928Z,101782.64
2023-04-15T20:06:39.936Z,101785.96
2023-04-15T20:09:30.864Z,101797.98
2023-04-15T20:12:50.008Z,101806.97
2023-04-15T20:15:32.279Z,101806.77
2023-04-15T20:18:22.999Z,101810.95
2023-04-15T20:21:13.683Z,101815.40
2023-04-15T20:24:04.739Z,101814.34
2023-04-15T20:26:58.386Z,101812.67
2023-04-15T20:29:58.437Z,101808.67
2023-04-15T20:33:00.692Z,101797.84
2023-04-15T20:35:57.178Z,101795.39
2023-04-15T20:38:53.479Z,101801.71
2023-04-15T20:41:44.122Z,101798.19
2023-04-15T20:44:35.755Z,101792.09
2023-04-15T20:47:26.506Z,101788.58
2023-04-15T20:50:17.373Z,101790.98
2023-04-15T20:53:28.350Z,101785.09
2023-04-15T20:56:18.975Z,101789.84
2023-04-15T20:59:30.308Z,101797.75
2023-04-15T21:02:25.297Z,101787.89
2023-04-15T21:05:19.157Z,101784.58
2023-04-15T21:08:14.723Z,101787.70
2023-04-15T21:11:11.780Z,101787.11
2023-04-15T21:14:02.831Z,101797.30
2023-04-15T21:16:53.853Z,101796.35
2023-04-15T21:19:44.778Z,101792.25
2023-04-15T21:22:35.205Z,101785.82
2023-04-15T21:25:43.088Z,101787.39
2023-04-15T21:28:40.752Z,101800.34
2023-04-15T21:31:31.852Z,101801.36
2023-04-15T21:34:46.742Z,101799.13
2023-04-15T21:37:38.117Z,101799.30
2023-04-15T21:40:40.792Z,101803.08
2023-04-15T21:43:36.225Z,101805.59
2023-04-15T21:46:32.825Z,101808.70
2023-04-15T21:49:46.710Z,101815.21
2023-04-15T21:52:40.108Z,101814.33
2023-04-15T21:55:41.154Z,101808.35
2023-04-15T21:58:52.424Z,101806.88
2023-04-15T22:01:51.165Z,101808.16
2023-04-15T22:04:42.076Z,101807.73
2023-04-15T22:07:45.670Z,101801.70
2023-04-15T22:10:40.275Z,101804.35
2023-04-15T22:13:30.952Z,101799.91
2023-04-15T22:16:42.308Z,101808.88
2023-04-15T22:19:46.984Z,101812.34
2023-04-15T22:22:49.095Z,101810.20
2023-04-15T22:26:05.933Z,101802.95
2023-04-15T22:29:16.908Z,101806.48
2023-04-15T22:32:18.436Z,101797.19
2023-04-15T22:35:15.190Z,101797.42
2023-04-15T22:38:26.122Z,101785.52
2023-04-15T22:41:16.724Z,101776.26
2023-04-15T22:44:10.294Z,101771.13
2023-04-15T22:47:05.999Z,101768.67
2023-04-15T22:50:02.382Z,101776.86
2023-04-15T22:52:55.854Z,101772.15
2023-04-15T22:55:57.405Z,101779.44
2023-04-15T22:58:54.025Z,101786.77
2023-04-15T23:01:45.342Z,101783.16
2023-04-15T23:04:41.090Z,101792.20
2023-04-15T23:07:37.388Z,101795.94
2023-04-15T23:10:31.183Z,101799.02
2023-04-15T23:13:22.168Z,101806.37
2023-04-15T23:16:18.821Z,101802.42
2023-04-15T23:19:16.754Z,101806.27
2023-04-15T23:22:12.267Z,101803.11
2023-04-15T23:25:15.983Z,101799.34
2023-04-15T23:28:09.942Z,101800.60
2023-04-15T23:31:00.944Z,101800.85
2023-04-15T23:33:51.653Z,101804.40
2023-04-15T23:36:42.469Z,101805.02
2023-04-15T23:39:36.459Z,101796.14
2023-04-15T23:42:27.309Z,101800.79
2023-04-15T23:45:21.040Z,101799.45
2023-04-15T23:48:11.917Z,101796.09
2023-04-15T23:51:07.158Z,101800.14
2023-04-15T23:54:01.425Z,101810.79
2023-04-15T23:56:56.592Z,101803.92
2023-04-15T23:59:50.343Z,101803.66
